Time;durP1;ratioP1;P1;durP2;ratioP2;P2;SDS_P1;SDS_P2;PMS_P1;PMS_P2;Temp;Humidity;BMP_temperature;BMP_pressure;BME280_temperature;BME280_humidity;BME280_pressure;Samples;Min_cycle;Max_cycle;Signal;HPM_P1;HPM_P2
2023/04/11 00:00:30;;;;;;;6.73;6.03;;;;;;;6.69;100.00;96209.66;5008929;28;105429;-62
2023/04/11 00:02:58;;;;;;;6.10;5.50;;;;;;;6.78;100.00;96205.63;5009469;28;101896;-62
2023/04/11 00:05:26;;;;;;;6.97;6.17;;;;;;;6.79;100.00;96202.78;5009343;28;105406;-62
2023/04/11 00:07:53;;;;;;;6.47;5.87;;;;;;;6.75;100.00;96198.16;5021360;28;102520;-62
2023/04/11 00:10:21;;;;;;;6.50;5.50;;;;;;;6.69;100.00;96186.69;5024970;28;101827;-62
2023/04/11 00:12:48;;;;;;;6.60;5.90;;;;;;;6.69;100.00;96189.34;5010020;28;105288;-62
2023/04/11 00:15:15;;;;;;;5.97;5.37;;;;;;;6.59;100.00;96194.38;5011830;28;104958;-62
2023/04/11 00:17:44;;;;;;;6.40;5.70;;;;;;;6.64;100.00;96180.47;5009308;28;104492;-62
2023/04/11 00:20:13;;;;;;;6.00;5.40;;;;;;;6.71;100.00;96178.53;5010792;28;104002;-62
2023/04/11 00:22:40;;;;;;;6.73;6.00;;;;;;;6.51;100.00;96163.03;5030741;28;101679;-62
2023/04/11 00:25:45;;;;;;;7.37;6.67;;;;;;;6.63;100.00;96174.41;5026397;28;104936;-62
2023/04/11 00:28:12;;;;;;;7.30;6.13;;;;;;;6.65;100.00;96155.69;5025123;28;105526;-62
2023/04/11 00:30:40;;;;;;;6.70;6.00;;;;;;;6.66;100.00;96150.16;5008998;28;101845;-62
2023/04/11 00:33:09;;;;;;;7.13;5.93;;;;;;;6.71;100.00;96133.63;5008779;28;105347;-62
2023/04/11 00:35:38;;;;;;;6.73;6.03;;;;;;;6.72;100.00;96148.44;5027619;28;105075;-62
2023/04/11 00:38:05;;;;;;;8.00;6.67;;;;;;;6.64;100.00;96132.91;5028320;28;101799;-62
2023/04/11 00:40:33;;;;;;;6.33;5.73;;;;;;;6.47;100.00;96156.59;4996794;28;104973;-62
2023/04/11 00:43:32;;;;;;;7.10;5.97;;;;;;;6.52;100.00;96137.41;5028853;28;101873;-62
2023/04/11 00:45:59;;;;;;;6.23;5.63;;;;;;;6.55;100.00;96155.47;5027435;27;105379;-62
2023/04/11 00:48:27;;;;;;;6.17;5.57;;;;;;;6.50;100.00;96148.22;5031095;28;105471;-62
2023/04/11 00:50:54;;;;;;;6.33;5.73;;;;;;;6.51;100.00;96156.94;5032315;28;102105;-62
2023/04/11 00:53:24;;;;;;;7.17;6.13;;;;;;;6.29;100.00;96155.91;5032021;28;104931;-62
2023/04/11 00:55:51;;;;;;;7.00;6.30;;;;;;;6.46;100.00;96149.72;5013776;28;104919;-62
2023/04/11 00:58:19;;;;;;;6.87;6.17;;;;;;;6.45;100.00;96142.84;5015707;28;101992;-62
2023/04/11 01:00:48;;;;;;;6.43;5.60;;;;;;;6.55;100.00;96142.25;5024262;28;104993;-62
2023/04/11 01:03:15;;;;;;;6.33;5.73;;;;;;;6.40;100.00;96141.91;5032196;28;101834;-62
2023/04/11 01:05:43;;;;;;;6.80;6.07;;;;;;;6.34;100.00;96133.06;5031984;28;105491;-62
2023/04/11 01:08:11;;;;;;;7.73;6.20;;;;;;;6.39;100.00;96114.69;5065380;27;106852;-62
2023/04/11 01:10:41;;;;;;;6.53;5.60;;;;;;;6.35;100.00;96123.31;5022686;28;101869;-62
2023/04/11 01:13:09;;;;;;;6.40;5.80;;;;;;;6.51;100.00;96106.75;5011747;28;105699;-62
2023/04/11 01:15:36;;;;;;;6.83;5.47;;;;;;;6.64;100.00;96101.22;5011271;28;105007;-62
2023/04/11 01:18:07;;;;;;;6.43;5.67;;;;;;;6.75;100.00;96092.47;5011553;28;101867;-62
2023/04/11 01:20:34;;;;;;;6.80;6.00;;;;;;;6.76;100.00;96110.72;5014045;28;105476;-63
2023/04/11 01:23:14;;;;;;;7.77;5.57;;;;;;;6.54;100.00;96106.31;5013790;28;101745;-62
2023/04/11 01:25:43;;;;;;;6.27;5.67;;;;;;;6.36;100.00;96109.06;5031863;28;105224;-63
2023/04/11 01:28:11;;;;;;;6.30;5.57;;;;;;;6.33;100.00;96102.41;5031033;28;105025;-62
2023/04/11 01:30:40;;;;;;;6.87;5.87;;;;;;;6.45;100.00;96094.47;5022892;28;102072;-62
2023/04/11 01:33:42;;;;;;;5.90;5.30;;;;;;;6.60;100.00;96100.09;5023483;28;105705;-62
2023/04/11 01:36:09;;;;;;;6.60;5.90;;;;;;;6.60;100.00;96092.97;5024675;28;105801;-62
2023/04/11 01:38:36;;;;;;;6.63;5.90;;;;;;;6.56;100.00;96099.75;5025653;28;101994;-62
2023/04/11 01:41:06;;;;;;;6.03;5.43;;;;;;;6.60;100.00;96110.66;5020099;28;104813;-62
2023/04/11 01:43:41;;;;;;;5.43;4.93;;;;;;;6.70;100.00;96095.81;5014422;28;106100;-62
2023/04/11 01:46:10;;;;;;;5.80;5.27;;;;;;;6.76;100.00;96109.94;5024739;28;104917;-63
2023/04/11 01:48:38;;;;;;;5.10;4.60;;;;;;;6.78;100.00;96111.31;5031072;28;105590;-63
2023/04/11 01:51:06;;;;;;;5.17;4.20;;;;;;;6.97;100.00;96114.59;5019676;28;101907;-63
2023/04/11 01:53:42;;;;;;;5.67;4.20;;;;;;;7.13;100.00;96112.00;5029606;28;105167;-63
2023/04/11 01:56:11;;;;;;;4.27;3.70;;;;;;;7.19;100.00;96099.72;5030882;28;104939;-63
2023/04/11 01:58:38;;;;;;;4.37;3.20;;;;;;;7.73;100.00;96102.53;5029133;27;101845;-63
2023/04/11 02:01:05;;;;;;;3.20;2.90;;;;;;;7.80;100.00;96113.75;5018779;28;105033;-63
2023/04/11 02:03:32;;;;;;;3.13;2.90;;;;;;;8.20;100.00;96119.75;5012213;28;103224;-63
2023/04/11 02:06:01;;;;;;;2.93;2.70;;;;;;;8.37;100.00;96127.69;5014915;28;101865;-63
2023/04/11 02:08:29;;;;;;;2.40;2.20;;;;;;;8.43;100.00;96108.97;5010676;28;104875;-63
2023/04/11 02:10:56;;;;;;;2.60;2.40;;;;;;;8.36;100.00;96112.81;5011198;28;101895;-63
2023/04/11 02:13:25;;;;;;;3.10;2.80;;;;;;;8.45;100.00;96098.13;5015902;28;105284;-63
2023/04/11 02:15:52;;;;;;;2.70;2.20;;;;;;;8.48;100.00;96094.97;5010197;28;104262;-63
2023/04/11 02:18:19;;;;;;;2.70;2.50;;;;;;;8.42;100.00;96099.41;5011010;28;101835;-63
2023/04/11 02:20:46;;;;;;;2.80;2.60;;;;;;;8.36;100.00;96103.03;5020075;28;105640;-63
2023/04/11 02:23:26;;;;;;;2.63;2.43;;;;;;;8.39;100.00;96101.75;5031650;27;102516;-63
2023/04/11 02:25:53;;;;;;;2.70;2.50;;;;;;;8.46;100.00;96091.78;5029326;28;102205;-63
2023/04/11 02:28:21;;;;;;;3.73;2.60;;;;;;;8.51;100.00;96086.56;5020434;28;103990;-63
2023/04/11 02:30:50;;;;;;;4.10;2.73;;;;;;;8.51;100.00;96097.16;5011073;28;101954;-63
2023/04/11 02:33:19;;;;;;;3.93;2.33;;;;;;;8.51;100.00;96089.19;5011044;28;105319;-63
2023/04/11 02:35:46;;;;;;;2.80;2.60;;;;;;;8.49;100.00;96107.16;5010059;28;105739;-63
2023/04/11 02:38:13;;;;;;;2.30;2.10;;;;;;;8.71;100.00;96084.97;5012158;28;101797;-63
2023/04/11 02:40:40;;;;;;;2.30;1.80;;;;;;;8.94;100.00;96097.19;5011765;28;105432;-63
2023/04/11 02:43:34;;;;;;;2.30;2.20;;;;;;;8.90;100.00;96086.25;5009953;28;105012;-63
2023/04/11 02:46:03;;;;;;;2.33;2.13;;;;;;;8.96;100.00;96071.22;5011713;28;101886;-63
2023/04/11 02:48:32;;;;;;;2.57;2.37;;;;;;;8.86;100.00;96057.84;5010758;28;105720;-63
2023/04/11 02:50:58;;;;;;;2.53;2.30;;;;;;;8.78;100.00;96052.97;5026446;28;105179;-63
2023/04/11 02:53:32;;;;;;;2.30;2.10;;;;;;;8.77;100.00;96056.69;5013575;28;104574;-62
2023/04/11 02:55:59;;;;;;;2.03;1.93;;;;;;;8.73;100.00;96055.56;5010851;28;103968;-63
2023/04/11 02:58:27;;;;;;;1.93;1.83;;;;;;;9.11;100.00;96047.53;5010346;28;102220;-62
2023/04/11 03:00:57;;;;;;;1.90;1.63;;;;;;;9.32;100.00;96044.03;5026187;28;104749;-63
2023/04/11 03:03:56;;;;;;;2.67;1.70;;;;;;;9.33;100.00;96030.50;5026794;28;104984;-63
2023/04/11 03:06:29;;;;;;;1.90;1.80;;;;;;;9.23;100.00;96030.41;5010294;28;101796;-63
2023/04/11 03:08:59;;;;;;;1.93;1.83;;;;;;;9.24;100.00;96020.59;5001506;27;105107;-63
2023/04/11 03:11:27;;;;;;;1.83;1.73;;;;;;;9.25;100.00;96011.56;5031457;28;105045;-63
2023/04/11 03:14:29;;;;;;;2.13;1.90;;;;;;;9.20;100.00;96016.81;5029911;28;105294;-63
2023/04/11 03:16:56;;;;;;;2.20;2.00;;;;;;;9.17;100.00;95998.78;5029657;28;105163;-63
2023/04/11 03:19:24;;;;;;;2.10;1.83;;;;;;;9.20;100.00;95988.47;5028103;28;101994;-63
2023/04/11 03:21:52;;;;;;;2.17;1.50;;;;;;;9.32;100.00;95975.84;5063840;27;104392;-63
2023/04/11 03:24:48;;;;;;;1.80;1.70;;;;;;;9.42;100.00;95972.47;5028281;28;104440;-63
2023/04/11 03:27:16;;;;;;;1.73;1.63;;;;;;;9.58;100.00;95974.19;5010110;28;102033;-62
2023/04/11 03:29:45;;;;;;;2.00;1.80;;;;;;;9.61;100.00;95971.84;5009816;28;103613;-63
2023/04/11 03:32:24;;;;;;;1.80;1.70;;;;;;;9.58;100.00;95976.84;5009451;28;104338;-62
2023/04/11 03:35:03;;;;;;;1.77;1.67;;;;;;;9.56;100.00;95968.34;5013086;28;102015;-63
2023/04/11 03:37:30;;;;;;;1.90;1.70;;;;;;;9.51;100.00;95970.94;5009442;28;105288;-63
2023/04/11 03:39:57;;;;;;;1.80;1.70;;;;;;;9.50;100.00;95969.34;5026694;28;102151;-63
2023/04/11 03:42:24;;;;;;;1.80;1.70;;;;;;;9.48;100.00;95966.94;5029915;28;104978;-63
2023/04/11 03:44:57;;;;;;;1.80;1.70;;;;;;;9.53;100.00;95987.41;5027718;28;105336;-63
2023/04/11 03:47:25;;;;;;;1.60;1.50;;;;;;;9.60;100.00;95982.72;5029749;28;101849;-63
2023/04/11 03:49:52;;;;;;;1.63;1.53;;;;;;;9.65;100.00;95977.44;5028216;28;105639;-63
2023/04/11 03:52:21;;;;;;;1.80;1.70;;;;;;;9.66;100.00;95963.13;5028453;28;105549;-63
2023/04/11 03:55:07;;;;;;;2.73;1.70;;;;;;;9.87;100.00;95951.56;5029179;28;101947;-63
2023/04/11 03:57:35;;;;;;;2.00;1.40;;;;;;;10.22;95.30;95927.88;5017692;28;105061;-63
2023/04/11 04:00:05;;;;;;;1.60;1.50;;;;;;;10.35;91.90;95943.38;5014417;28;101974;-63
2023/04/11 04:02:41;;;;;;;1.83;1.73;;;;;;;10.35;90.87;95948.69;5027519;28;102291;-63
2023/04/11 04:05:11;;;;;;;1.60;1.50;;;;;;;10.24;99.48;95953.13;5028443;28;105569;-62
2023/04/11 04:07:41;;;;;;;2.00;1.90;;;;;;;10.13;100.00;95956.00;5027635;28;101979;-62
2023/04/11 04:10:24;;;;;;;1.90;1.80;;;;;;;10.03;100.00;95956.72;5020702;28;103662;-62
2023/04/11 04:12:54;;;;;;;1.60;1.50;;;;;;;9.96;100.00;95950.03;5009779;28;105100;-62
2023/04/11 04:15:24;;;;;;;2.50;1.60;;;;;;;9.86;100.00;95944.66;5009157;28;101822;-62
2023/04/11 04:17:52;;;;;;;2.40;2.20;;;;;;;9.75;100.00;95935.03;5010623;28;102376;-62
2023/04/11 04:20:39;;;;;;;2.40;2.20;;;;;;;9.74;100.00;95930.75;5007846;28;102880;-63
2023/04/11 04:23:12;;;;;;;1.90;1.77;;;;;;;9.67;100.00;95930.19;5010331;28;105171;-63
2023/04/11 04:25:56;;;;;;;1.90;1.80;;;;;;;9.67;100.00;95923.03;5008366;28;105412;-62
2023/04/11 04:28:26;;;;;;;2.53;1.90;;;;;;;9.65;100.00;95943.72;5009134;28;101866;-62
2023/04/11 04:30:56;;;;;;;1.40;1.40;;;;;;;9.74;100.00;95973.25;5009121;28;104993;-62
2023/04/11 04:33:41;;;;;;;2.23;1.80;;;;;;;9.80;100.00;95964.25;5008316;28;106057;-63
2023/04/11 04:36:16;;;;;;;2.57;1.53;;;;;;;9.69;100.00;95949.31;5009024;28;101830;-63
2023/04/11 04:38:46;;;;;;;1.13;0.97;;;;;;;10.87;100.00;95930.75;5011080;28;105329;-63
2023/04/11 04:41:14;;;;;;;0.73;0.73;;;;;;;12.03;63.29;95929.72;5008325;28;104961;-63
2023/04/11 04:43:59;;;;;;;1.10;1.00;;;;;;;11.59;81.08;95934.84;5012413;28;101835;-62
2023/04/11 04:46:36;;;;;;;1.30;1.20;;;;;;;11.23;95.24;95927.88;5009235;28;104094;-62
2023/04/11 04:49:05;;;;;;;2.90;1.50;;;;;;;10.93;100.00;95938.50;5008645;28;101890;-62
2023/04/11 04:51:32;;;;;;;1.90;1.80;;;;;;;10.52;100.00;95944.75;5025166;28;105100;-62
2023/04/11 04:54:11;;;;;;;1.73;1.63;;;;;;;10.30;100.00;95941.47;5021509;28;105858;-62
2023/04/11 04:56:37;;;;;;;1.67;1.57;;;;;;;10.30;100.00;95924.75;5008785;28;102296;-63
2023/04/11 04:59:05;;;;;;;1.73;1.43;;;;;;;10.24;100.00;95931.88;5008659;28;105200;-63
2023/04/11 05:01:33;;;;;;;1.73;1.60;;;;;;;10.26;100.00;95913.03;5023909;28;105647;-63
2023/04/11 05:04:38;;;;;;;1.87;1.60;;;;;;;10.20;100.00;95936.09;5027019;28;101908;-63
2023/04/11 05:07:05;;;;;;;1.80;1.70;;;;;;;10.18;100.00;95929.44;5031559;28;104791;-63
2023/04/11 05:09:35;;;;;;;2.03;1.80;;;;;;;10.16;100.00;95918.28;5017409;28;101817;-63
2023/04/11 05:12:13;;;;;;;2.67;1.57;;;;;;;10.06;100.00;95934.19;5009822;28;104540;-63
2023/04/11 05:14:51;;;;;;;1.80;1.70;;;;;;;10.03;100.00;95919.53;5008802;28;105514;-63
2023/04/11 05:17:19;;;;;;;2.13;1.37;;;;;;;10.03;100.00;95918.75;5008858;28;102012;-63
2023/04/11 05:19:46;;;;;;;1.80;1.70;;;;;;;9.99;100.00;95915.00;5008631;28;104794;-63
2023/04/11 05:22:12;;;;;;;1.77;1.67;;;;;;;9.94;100.00;95912.31;5010060;28;102557;-63
2023/04/11 05:24:50;;;;;;;2.00;1.90;;;;;;;10.01;100.00;95910.22;5008571;28;102292;-63
2023/04/11 05:27:18;;;;;;;1.83;1.73;;;;;;;9.93;100.00;95918.69;5011642;28;105098;-64
2023/04/11 05:29:46;;;;;;;1.60;1.50;;;;;;;9.99;100.00;95918.47;5008458;28;101842;-64
2023/04/11 05:32:14;;;;;;;2.30;1.60;;;;;;;10.07;100.00;95920.66;5009330;28;104516;-63
2023/04/11 05:35:05;;;;;;;1.30;1.30;;;;;;;10.13;100.00;95911.63;5010641;28;105132;-64
2023/04/11 05:37:52;;;;;;;1.60;1.50;;;;;;;10.18;100.00;95921.47;5027967;28;102036;-63
2023/04/11 05:40:21;;;;;;;1.97;1.70;;;;;;;10.19;100.00;95955.75;5031865;28;104912;-63
2023/04/11 05:42:48;;;;;;;3.73;1.90;;;;;;;10.19;100.00;95944.34;5029653;28;105567;-63
2023/04/11 05:45:24;;;;;;;2.67;1.80;;;;;;;10.12;100.00;95962.38;5031569;28;101908;-63
2023/04/11 05:47:51;;;;;;;4.27;1.80;;;;;;;10.12;100.00;95997.72;5017001;28;104989;-64
2023/04/11 05:50:18;;;;;;;2.80;1.80;;;;;;;10.34;100.00;95971.78;5034055;28;105816;-64
2023/04/11 05:52:45;;;;;;;2.13;1.63;;;;;;;10.34;100.00;95997.56;5031274;28;105277;-64
2023/04/11 05:55:12;;;;;;;3.70;1.83;;;;;;;10.27;100.00;96011.09;5030467;28;105342;-64
2023/04/11 05:57:41;;;;;;;3.03;1.80;;;;;;;10.18;100.00;96006.50;5031147;28;102188;-63
2023/04/11 06:00:11;;;;;;;1.93;1.80;;;;;;;10.07;100.00;96002.19;5016717;28;105185;-63
2023/04/11 06:02:39;;;;;;;1.90;1.70;;;;;;;10.02;100.00;96002.94;5008965;28;102352;-64
2023/04/11 06:05:16;;;;;;;1.90;1.80;;;;;;;9.95;100.00;96022.78;5011170;28;101895;-63
2023/04/11 06:07:44;;;;;;;4.43;2.10;;;;;;;9.92;100.00;96018.00;5030227;28;104947;-63
2023/04/11 06:10:11;;;;;;;2.63;1.70;;;;;;;9.92;100.00;96031.28;5028912;28;102688;-64
2023/04/11 06:12:37;;;;;;;1.80;1.60;;;;;;;9.89;100.00;96029.13;5034733;28;101868;-64
2023/04/11 06:15:08;;;;;;;2.50;1.83;;;;;;;9.90;100.00;96025.41;5025777;28;105448;-63
2023/04/11 06:17:35;;;;;;;2.00;1.80;;;;;;;9.88;100.00;96023.00;5012701;28;101867;-63
2023/04/11 06:20:04;;;;;;;2.10;2.00;;;;;;;9.82;100.00;96031.22;5012295;28;102814;-64
2023/04/11 06:22:31;;;;;;;2.10;2.00;;;;;;;9.88;100.00;96022.22;5011430;28;103801;-63
2023/04/11 06:25:09;;;;;;;2.10;2.00;;;;;;;9.91;100.00;96013.72;5011668;28;101977;-64
2023/04/11 06:27:36;;;;;;;1.97;1.77;;;;;;;9.94;100.00;96008.72;5012424;28;102346;-63
2023/04/11 06:30:03;;;;;;;2.23;1.90;;;;;;;9.96;100.00;96005.78;5023692;28;102100;-63
2023/04/11 06:32:31;;;;;;;3.03;1.97;;;;;;;9.98;100.00;96003.72;5030954;28;101872;-62
2023/04/11 06:35:23;;;;;;;6.00;2.23;;;;;;;9.99;100.00;95986.72;5033101;28;103812;-62
2023/04/11 06:37:51;;;;;;;4.17;2.30;;;;;;;10.09;100.00;95981.50;5030824;28;102084;-62
2023/04/11 06:40:18;;;;;;;3.53;2.10;;;;;;;10.14;100.00;95976.22;5017193;27;102307;-63
2023/04/11 06:42:46;;;;;;;3.20;1.93;;;;;;;10.18;100.00;95971.97;5019448;28;102497;-63
2023/04/11 06:45:13;;;;;;;2.13;1.93;;;;;;;10.19;100.00;95992.19;5030184;27;102010;-62
2023/04/11 06:47:41;;;;;;;2.80;1.70;;;;;;;10.19;100.00;96002.81;5031846;27;102592;-63
2023/04/11 06:50:08;;;;;;;2.30;2.10;;;;;;;10.16;100.00;96006.78;5026538;28;105078;-63
2023/04/11 06:52:35;;;;;;;3.33;2.30;;;;;;;10.15;100.00;96005.16;5005241;28;102561;-63
2023/04/11 06:55:07;;;;;;;3.97;2.53;;;;;;;10.20;100.00;96012.38;5010214;28;105002;-62
2023/04/11 06:57:34;;;;;;;2.10;1.90;;;;;;;10.29;100.00;96013.47;5026212;28;105167;-62
2023/04/11 07:00:00;;;;;;;2.00;1.73;;;;;;;10.37;100.00;95994.41;5064578;27;104927;-62
2023/04/11 07:02:27;;;;;;;2.30;2.10;;;;;;;10.37;100.00;95997.84;5018492;28;105058;-62
2023/04/11 07:05:00;;;;;;;2.20;2.00;;;;;;;10.38;100.00;95999.47;5010259;28;102102;-62
2023/04/11 07:07:27;;;;;;;3.03;2.40;;;;;;;10.42;100.00;96007.72;5011068;28;105079;-63
2023/04/11 07:09:54;;;;;;;6.20;2.40;;;;;;;10.40;100.00;96009.81;5009728;28;105181;-63
2023/04/11 07:12:20;;;;;;;3.47;2.30;;;;;;;10.41;100.00;96011.44;5009877;28;101966;-63
2023/04/11 07:15:15;;;;;;;4.73;2.40;;;;;;;10.42;100.00;96013.03;5010032;28;104440;-62
2023/04/11 07:17:42;;;;;;;6.53;2.77;;;;;;;10.34;100.00;96011.66;5029264;28;105644;-64
2023/04/11 07:20:11;;;;;;;4.70;2.00;;;;;;;10.22;100.00;96007.59;5033445;28;101850;-64
2023/04/11 07:22:42;;;;;;;2.60;1.90;;;;;;;10.03;100.00;95995.78;5027452;28;104282;-64
2023/04/11 07:25:12;;;;;;;3.57;2.50;;;;;;;9.98;100.00;96011.66;5027628;28;103403;-64
2023/04/11 07:27:41;;;;;;;2.77;2.53;;;;;;;9.87;100.00;96026.72;5026151;28;105456;-65
2023/04/11 07:30:10;;;;;;;2.67;2.40;;;;;;;9.74;100.00;96026.34;5006937;28;104106;-64
2023/04/11 07:32:37;;;;;;;4.13;2.43;;;;;;;9.62;100.00;96029.19;5017104;28;102499;-65
2023/04/11 07:35:34;;;;;;;4.17;2.60;;;;;;;9.61;100.00;96024.13;5018908;28;104985;-65
2023/04/11 07:38:02;;;;;;;3.00;2.27;;;;;;;9.56;100.00;96030.19;4995699;28;103935;-64
2023/04/11 07:40:29;;;;;;;3.40;2.60;;;;;;;9.59;100.00;96035.00;5030952;28;101882;-64
2023/04/11 07:43:07;;;;;;;5.50;2.30;;;;;;;9.58;100.00;96037.88;5026126;28;103867;-64
2023/04/11 07:45:35;;;;;;;2.63;2.33;;;;;;;9.61;100.00;96048.03;5023309;28;101840;-64
2023/04/11 07:48:02;;;;;;;2.70;2.23;;;;;;;9.69;100.00;96050.19;5010841;28;102951;-64
2023/04/11 07:50:29;;;;;;;1.70;1.60;;;;;;;9.94;100.00;96047.75;5014133;28;105026;-64
2023/04/11 07:52:57;;;;;;;1.43;1.33;;;;;;;10.13;100.00;96047.13;5021749;28;101913;-64
2023/04/11 07:55:24;;;;;;;1.80;1.50;;;;;;;10.16;100.00;96045.81;5017158;28;105506;-64
2023/04/11 07:57:51;;;;;;;3.33;1.40;;;;;;;10.22;100.00;96060.75;5013237;28;104530;-64
2023/04/11 08:00:22;;;;;;;3.33;1.57;;;;;;;10.24;100.00;96054.13;5010425;28;102331;-65
2023/04/11 08:02:49;;;;;;;4.97;2.40;;;;;;;10.25;100.00;96061.03;5012157;28;104424;-64
2023/04/11 08:05:16;;;;;;;1.60;1.50;;;;;;;10.27;100.00;96058.94;5010360;28;102260;-64
2023/04/11 08:07:43;;;;;;;2.80;1.27;;;;;;;10.34;100.00;96054.19;5009140;28;103782;-64
2023/04/11 08:10:12;;;;;;;1.40;1.30;;;;;;;10.30;100.00;96047.78;5011901;28;105313;-63
2023/04/11 08:12:38;;;;;;;1.77;0.90;;;;;;;10.27;100.00;96055.47;5030597;27;101816;-63
2023/04/11 08:15:07;;;;;;;0.87;0.87;;;;;;;10.26;100.00;96059.19;5027777;28;105321;-64
2023/04/11 08:17:36;;;;;;;1.13;1.10;;;;;;;10.28;100.00;96076.47;5029226;27;102602;-64
2023/04/11 08:20:06;;;;;;;1.47;1.17;;;;;;;10.22;100.00;96079.34;4992969;28;101849;-65
2023/04/11 08:22:34;;;;;;;1.20;1.20;;;;;;;10.19;100.00;96074.56;5009521;28;103654;-64
2023/04/11 08:25:02;;;;;;;1.50;1.40;;;;;;;10.18;100.00;96070.28;5021353;28;103928;-64
2023/04/11 08:27:31;;;;;;;1.50;1.40;;;;;;;10.19;100.00;96082.53;5029083;27;102340;-63
2023/04/11 08:29:58;;;;;;;1.97;1.70;;;;;;;10.23;100.00;96083.59;5009030;28;105377;-63
2023/04/11 08:32:25;;;;;;;1.33;1.23;;;;;;;10.22;100.00;96079.34;5013062;28;101912;-63
2023/04/11 08:35:04;;;;;;;1.13;1.10;;;;;;;10.22;100.00;96089.97;5028774;28;102614;-63
2023/04/11 08:37:31;;;;;;;1.50;1.40;;;;;;;10.24;100.00;96080.69;5028330;28;105443;-63
2023/04/11 08:39:58;;;;;;;1.90;1.00;;;;;;;10.30;100.00;96090.28;5010829;28;101902;-63
2023/04/11 08:42:27;;;;;;;1.40;1.30;;;;;;;10.33;100.00;96103.09;5008549;28;105084;-63
2023/04/11 08:44:56;;;;;;;1.57;0.70;;;;;;;10.33;100.00;96104.94;5010207;28;102569;-63
2023/04/11 08:47:23;;;;;;;1.17;0.80;;;;;;;10.31;100.00;96112.38;5012003;28;101804;-63
2023/04/11 08:49:53;;;;;;;2.43;1.17;;;;;;;10.31;100.00;96120.34;5009904;28;105715;-63
2023/04/11 08:52:22;;;;;;;1.83;1.37;;;;;;;10.31;100.00;96123.00;5027710;28;102041;-63
2023/04/11 08:54:53;;;;;;;2.17;1.50;;;;;;;10.36;100.00;96131.00;5027420;28;105841;-63
2023/04/11 08:57:26;;;;;;;3.00;1.27;;;;;;;10.34;100.00;96133.91;5027726;28;105287;-63
2023/04/11 08:59:58;;;;;;;3.17;2.77;;;;;;;10.27;100.00;96138.66;5011964;28;103240;-63
2023/04/11 09:02:26;;;;;;;1.00;0.97;;;;;;;10.15;100.00;96150.50;5008472;28;104920;-63
2023/04/11 09:05:24;;;;;;;3.10;2.33;;;;;;;10.05;100.00;96151.22;5007595;28;105036;-63
2023/04/11 09:07:51;;;;;;;3.53;2.10;;;;;;;9.99;100.00;96159.38;5023613;27;102205;-63
2023/04/11 09:10:19;;;;;;;4.77;2.63;;;;;;;9.77;100.00;96169.25;5014705;28;105014;-63
2023/04/11 09:12:46;;;;;;;6.87;2.97;;;;;;;9.69;100.00;96164.38;5011623;28;102098;-63
2023/04/11 09:15:20;;;;;;;16.70;5.70;;;;;;;9.61;100.00;96173.59;5024405;28;105090;-63
2023/04/11 09:17:48;;;;;;;0.90;0.90;;;;;;;9.52;100.00;96184.88;5016517;28;105021;-63
2023/04/11 09:20:20;;;;;;;0.80;0.80;;;;;;;9.49;100.00;96177.44;5023783;28;101973;-63
2023/04/11 09:22:50;;;;;;;1.23;0.90;;;;;;;9.46;100.00;96177.91;5014621;28;105307;-64
2023/04/11 09:25:17;;;;;;;1.00;1.00;;;;;;;9.43;100.00;96181.09;5012551;28;102549;-63
2023/04/11 09:27:44;;;;;;;0.90;0.90;;;;;;;9.48;100.00;96189.09;5011550;28;101856;-63
2023/04/11 09:30:22;;;;;;;0.87;0.87;;;;;;;9.51;100.00;96180.63;5011647;28;105115;-63
2023/04/11 09:32:51;;;;;;;1.33;0.90;;;;;;;9.56;100.00;96175.38;5017502;28;102229;-63
2023/04/11 09:35:21;;;;;;;0.70;0.70;;;;;;;9.57;100.00;96177.78;5031644;28;103684;-63
2023/04/11 09:37:50;;;;;;;0.80;0.70;;;;;;;9.51;100.00;96189.41;5018896;28;105766;-63
2023/04/11 09:40:19;;;;;;;0.87;0.87;;;;;;;9.54;100.00;96172.19;5011187;28;102112;-63
2023/04/11 09:42:47;;;;;;;1.63;0.90;;;;;;;9.55;100.00;96168.47;5011159;28;105191;-63
2023/04/11 09:45:17;;;;;;;1.23;0.70;;;;;;;9.65;100.00;96176.56;5010644;28;105358;-63
2023/04/11 09:47:46;;;;;;;1.07;0.80;;;;;;;9.90;100.00;96184.75;5021956;28;101862;-63
2023/04/11 09:50:13;;;;;;;1.63;0.90;;;;;;;9.74;100.00;96183.81;5025256;28;105220;-63
2023/04/11 09:52:41;;;;;;;0.83;0.60;;;;;;;9.59;100.00;96178.34;5033490;28;104972;-63
2023/04/11 09:55:13;;;;;;;0.70;0.70;;;;;;;9.60;100.00;96184.47;5031208;28;104765;-63
2023/04/11 09:57:44;;;;;;;1.33;0.80;;;;;;;9.50;100.00;96208.22;5028983;28;105468;-63
2023/04/11 10:00:14;;;;;;;0.43;0.43;;;;;;;9.32;100.00;96204.03;5027548;28;101801;-63
2023/04/11 10:02:41;;;;;;;1.37;0.60;;;;;;;9.27;100.00;96214.56;5020826;28;105437;-63
2023/04/11 10:05:27;;;;;;;0.60;0.60;;;;;;;9.33;100.00;96215.44;5010586;28;105369;-63
2023/04/11 10:08:02;;;;;;;0.60;0.60;;;;;;;9.35;100.00;96216.81;5023962;28;102307;-63
2023/04/11 10:10:29;;;;;;;0.80;0.70;;;;;;;9.27;100.00;96211.91;5026067;28;105137;-63
2023/04/11 10:12:59;;;;;;;2.10;1.30;;;;;;;9.23;100.00;96212.66;5030202;28;105419;-63
2023/04/11 10:15:26;;;;;;;2.60;1.43;;;;;;;9.27;100.00;96216.44;5022561;28;101835;-63
2023/04/11 10:18:09;;;;;;;1.30;1.00;;;;;;;9.25;100.00;96234.44;5010236;28;105269;-63
2023/04/11 10:20:49;;;;;;;0.70;0.70;;;;;;;9.27;100.00;96241.09;5009452;28;101880;-63
2023/04/11 10:23:19;;;;;;;1.00;0.87;;;;;;;9.28;100.00;96231.31;5024256;28;105300;-63
2023/04/11 10:25:50;;;;;;;1.07;1.07;;;;;;;9.17;100.00;96221.59;5023658;28;105627;-63
2023/04/11 10:28:44;;;;;;;1.20;0.90;;;;;;;9.21;100.00;96234.13;5042074;27;101909;-63
2023/04/11 10:31:15;;;;;;;1.50;0.80;;;;;;;9.17;100.00;96246.28;4987535;28;102859;-64
2023/04/11 10:34:12;;;;;;;0.60;0.60;;;;;;;9.06;100.00;96225.19;5011674;28;102945;-63
2023/04/11 10:37:07;;;;;;;1.70;0.80;;;;;;;9.04;100.00;96240.50;5012206;28;101636;-63
2023/04/11 10:40:08;;;;;;;0.97;0.70;;;;;;;8.95;100.00;96252.59;5022992;28;103700;-63
2023/04/11 10:42:37;;;;;;;0.90;0.70;;;;;;;8.74;100.00;96290.44;4962913;28;102057;-63
2023/04/11 10:48:26;;;;;;;1.90;1.03;;;;;;;8.37;100.00;96260.97;5025062;28;104374;-63
2023/04/11 10:50:53;;;;;;;2.43;1.07;;;;;;;8.24;100.00;96271.84;5028396;28;102103;-63
2023/04/11 10:53:51;;;;;;;1.03;0.80;;;;;;;8.07;100.00;96300.09;5028589;28;105069;-63
2023/04/11 10:56:54;;;;;;;1.07;0.90;;;;;;;7.98;100.00;96292.78;5031489;27;102472;-63
2023/04/11 11:00:12;;;;;;;1.90;0.90;;;;;;;7.77;100.00;96314.59;5022540;27;101859;-63
2023/04/11 11:02:40;;;;;;;3.10;1.37;;;;;;;7.70;100.00;96303.34;4950369;28;102815;-63
2023/04/11 11:05:24;;;;;;;1.93;1.33;;;;;;;7.67;100.00;96328.44;4937134;28;105327;-61
2023/04/11 11:07:53;;;;;;;1.83;1.40;;;;;;;7.61;100.00;96326.72;4959632;28;102158;-61
2023/04/11 11:10:37;;;;;;;2.80;1.40;;;;;;;7.52;100.00;96335.25;4963077;28;102008;-61
2023/04/11 11:13:19;;;;;;;2.03;1.40;;;;;;;7.54;100.00;96319.94;4951183;28;102007;-61
2023/04/11 11:15:47;;;;;;;1.27;0.70;;;;;;;7.52;100.00;96316.75;4969871;28;102311;-63
2023/04/11 11:18:16;;;;;;;1.90;0.87;;;;;;;7.48;100.00;96326.97;4939078;28;103722;-63
2023/04/11 11:20:43;;;;;;;3.00;1.53;;;;;;;7.49;100.00;96341.81;4963442;28;102313;-63
2023/04/11 11:23:15;;;;;;;2.30;1.30;;;;;;;7.27;100.00;96340.00;4968830;28;102797;-63
2023/04/11 11:25:52;;;;;;;1.93;1.37;;;;;;;7.26;100.00;96327.81;4967177;28;102476;-63
2023/04/11 11:28:19;;;;;;;2.37;1.03;;;;;;;7.31;100.00;96325.28;4950394;28;101878;-63
2023/04/11 11:30:51;;;;;;;1.30;0.90;;;;;;;7.45;100.00;96326.63;4962410;28;102499;-63
2023/04/11 11:33:21;;;;;;;2.03;1.20;;;;;;;7.61;100.00;96332.03;4969511;28;101857;-63
2023/04/11 11:35:54;;;;;;;2.60;1.70;;;;;;;7.59;100.00;96333.28;4972792;28;102882;-63
2023/04/11 11:38:23;;;;;;;3.70;2.00;;;;;;;7.81;100.00;96336.94;5029172;28;105016;-63
2023/04/11 11:40:52;;;;;;;5.63;3.50;;;;;;;7.84;100.00;96316.06;5011157;27;101692;-63
2023/04/11 11:43:45;;;;;;;3.03;2.77;;;;;;;8.11;100.00;96311.03;5024143;28;102410;-63
2023/04/11 11:46:14;;;;;;;3.83;1.53;;;;;;;8.07;100.00;96307.25;5030442;27;102680;-63